PATC/TNC METAR and TAF weather

Enter ICAO airport designator
Station Type Date Time Source
PATC METAR 2019/12/09 13:55 UTC NOAA

PATC 091355Z AUTO 03019KT 10SM CLR M08/M09 A2945 RMK AO2 SLP978 T10781092


Station Type Date Time Source
PATC Decoded METAR 2019/12/09 13:55 UTC NOAA

Tin City Airways Facilities Sector, AK, United States (PATC) 65-34N 167-55W
Dec 09, 2019 - 08:55 AM EST / 2019.12.09 1355 UTC
Wind: from the NNE (030 degrees) at 22 MPH (19 KT):0
Visibility: 10 mile(s):0
Sky conditions: clear
Temperature: 18.0 F (-7.8 C)
Windchill: 1 F (-17 C):1
Dew Point: 15.4 F (-9.2 C)
Relative Humidity: 89%
Pressure (altimeter): 29.45 in. Hg (997 hPa)
ob: PATC 091355Z AUTO 03019KT 10SM CLR M08/M09 A2945 RMK AO2 SLP978 T10781092
cycle: 14

Station Type Date Time Source
PATC TAF 2016/08/27 04:12 UTC NOAA

TAF PATC 270400Z 2704/2810 18012G18KT 0400 FG OVC002 QNH3015INS TX10/2718Z TN06/2710Z

Example: see airport list